Wednesday, December 19, 2018, 10:52 AM EST
Back to Local

KMTP, Montauk Airport

Location: Montauk, NY, United States Lat: 41.067
Local Time: 10:52 AM EST (15:52 GMT) Lon: -71.917
Time Zone: US/Eastern Elev: 6 ft

Show me the last for .
Show Decoded

2018-12-19 09:54 METAR KMTP 191454Z AUTO 30010KT M01/M07 A3016 RMK AO1 SLP213 T10061067 50003 =
2018-12-19 08:54 METAR KMTP 191354Z AUTO 31009KT M01/M08 A3017 RMK AO1 SLP215 T10111078 =
2018-12-19 07:54 METAR KMTP 191254Z AUTO 30006KT M02/M08 A3016 RMK AO1 SLP211 T10221078 =
2018-12-19 06:54 METAR KMTP 191154Z AUTO 32010KT M03/M08 A3015 RMK AO1 SLP210 T10281078 11028
                 21033 53009 =
2018-12-19 05:54 METAR KMTP 191054Z AUTO 30007KT M03/M08 A3014 RMK AO1 SLP204 T10281083 =
2018-12-19 04:54 METAR KMTP 190954Z AUTO 30007KT M03/M08 A3013 RMK AO1 SLP202 T10331083 =
2018-12-19 03:54 METAR KMTP 190854Z AUTO 31010KT M03/M09 A3012 RMK AO1 SLP200 T10331089 51008 =
2018-12-19 02:54 METAR KMTP 190754Z AUTO 31008KT M03/M09 A3012 RMK AO1 SLP197 T10331089 =
2018-12-19 01:54 METAR KMTP 190654Z AUTO 30007KT M03/M10 A3011 RMK AO1 SLP197 T10331100 =
2018-12-19 00:54 METAR KMTP 190554Z AUTO 30010G19KT M03/M09 A3010 RMK AO1 SLP192 T10331094 11006
                 21033 51004 =
2018-12-18 23:54 METAR KMTP 190454Z AUTO 30009G18KT M03/M09 A3010 RMK AO1 SLP191 T10281089
                 400501033 =
2018-12-18 22:54 METAR KMTP 190354Z AUTO 32013KT M02/M09 A3009 RMK AO1 SLP190 T10221089 =
2018-12-18 21:54 METAR KMTP 190254Z AUTO 32013G20KT M02/M09 A3009 RMK AO1 SLP188 T10221094 51005
                 =
2018-12-18 20:54 METAR KMTP 190154Z AUTO 31015G27KT M02/M10 A3008 RMK AO1 PK WND 31027/0154
                 SLP187 T10171100 =
2018-12-18 19:54 METAR KMTP 190054Z AUTO 31016G23KT M01/M10 A3008 RMK AO1 PK WND 31026/0037
                 SLP185 T10111100 =
2018-12-18 18:54 METAR KMTP 182354Z AUTO 32014G23KT M01/M10 A3007 RMK AO1 SLP183 T10111100 10006
                 21011 51023 =
2018-12-18 17:54 METAR KMTP 182254Z AUTO 31015G26KT 00/M10 A3006 RMK AO1 PK WND 31026/2249 SLP179
                 T00001100 =
2018-12-18 16:54 METAR KMTP 182154Z AUTO 31013G21KT 00/M11 A3004 RMK AO1 SLP172 T00001106 =
2018-12-18 15:54 METAR KMTP 182054Z AUTO 32011G20KT 00/M10 A3000 RMK AO1 SLP159 T00001100 53025 =
2018-12-18 14:54 METAR KMTP 181954Z AUTO 32013G22KT 01/M11 A2997 RMK AO1 SLP148 T00061106 =
2018-12-18 13:54 METAR KMTP 181854Z AUTO 32014G24KT 01/M11 A2995 RMK AO1 SLP143 T00061106 =
2018-12-18 12:54 METAR KMTP 181754Z AUTO 31015G24KT 00/M11 A2993 RMK AO1 PK WND 33026/1720 SLP134
                 T00001106 10006 21033 53002 =
2018-12-18 11:54 METAR KMTP 181654Z AUTO 32014G25KT M01/M11 A2992 RMK AO1 PK WND 31026/1600
                 SLP130 T10061106 =
2018-12-18 10:54 METAR KMTP 181554Z AUTO 32017G23KT M02/M12 A2991 RMK AO1 PK WND 31029/1514
                 SLP129 T10171117 =

Support USWX by starting your Amazon purchase here.